עמוד ראשי
METAR-TAF:

METAR-TAF

שדות תעופה :

ליהואה, הוואי, ארצות הברית

קו רוחב: 21-59-02N, קו אורך: 159-20-28W, גובה: 45מטר

תצפית מזג אוויר נוכחית

הדו"ח נערך לפני 53דקות, בשעה 04:11 UTC
רוח 9קשר מכיוון צפון-מזרח
טמפרטורת 27 צלסיוס
לחות 74%
לחץ 1018 hPa
ראות: 16.1קילומטר
עננים בינוניים בגובה 1900רגל
עננים בינוניים בגובה 2700רגל
עננים בינוניים בגובה 3200רגל

METAR: PHLI 210411Z 05009KT 10SM BKN019 BKN027 BKN032 27/22 A3005 RMK AO2 T02670222

זמן: 19:04 (05:04 UTC)

תחזית

הדו"ח נערך לפני 5 שעות ו 37דקות, בשעה 23:27 UTC
תחזית בתוקף מ 21 ב 00 UTC עד 21 ב 24 UTC
רוח 10קשר מכיוון מזרח/צפון-מזרח
ראות: 10קילומטר
מעט עננים בגובה 2500רגל
עננים פזורים בגובה 4000רגל
מ 21 ב 0600UTC
רוח 8קשר מכיוון מזרח/צפון-מזרח
ראות: 10קילומטר
עננים פזורים בגובה 2500רגל
עננים בינוניים בגובה 4000רגל
ממטרים במרחב
מ 21 ב 2000UTC
רוח 11קשר מכיוון מזרח/צפון-מזרח
ראות: 10קילומטר
מעט עננים בגובה 2500רגל
עננים פזורים בגובה 4000רגל

TAF: PHLI 202327Z 2100/2124 06010KT P6SM FEW025 SCT040 FM210600 06008KT P6SM VCSH SCT025 BKN040 FM212000 07011KT P6SM FEW025 SCT040

תצפיות ותחזיות מזג אוויר לגבי יותר מ- 4,000 שדות תעופה ברחבי העולם. דוחות METAR ו- TAF.

התחנות הזמינות מסומנות בנקודות צהובות ואדומות על גבי המפה.

העבר את העכבר לנקודה הצבעונית על מנת לראות את שם התחנה.

לאחר מכן, לחץ כדי לראות את תוכן ואת תחזיות מזג האוויר.

כדי לשנות את המפה: לחץ על הכפתורים הירוקים עם הפלוס השחור כדי להתקרב; על הכפתור הירוק עם המקף כדי להתרחק; או בחיצים הירוקים למפות סמוכות.


METAR-TAF: